createdAt,value
2018-11-22T12:16:34.366Z,101161.98
2018-11-22T12:19:04.363Z,101151.89
2018-11-22T12:21:33.708Z,101157.47
2018-11-22T12:24:02.942Z,101151.99
2018-11-22T12:26:31.941Z,101154.90
2018-11-22T12:29:01.490Z,101146.47
2018-11-22T12:32:06.406Z,101149.17
2018-11-22T12:34:40.660Z,101151.09
2018-11-22T12:37:15.026Z,101156.50
2018-11-22T12:39:44.061Z,101148.02
2018-11-22T12:42:13.137Z,101142.50
2018-11-22T12:44:42.959Z,101156.98
2018-11-22T12:47:12.178Z,101149.77
2018-11-22T12:49:41.962Z,101148.56
2018-11-22T12:52:11.250Z,101140.23
2018-11-22T12:54:40.120Z,101140.23
2018-11-22T12:57:09.273Z,101139.36
2018-11-22T12:59:38.345Z,101136.08
2018-11-22T13:02:07.421Z,101132.95
2018-11-22T13:04:36.508Z,101133.13
2018-11-22T13:07:05.794Z,101134.20
2018-11-22T13:09:34.730Z,101124.28
2018-11-22T13:12:03.721Z,101137.41
2018-11-22T13:14:32.416Z,101138.97
2018-11-22T13:17:01.389Z,101135.72
2018-11-22T13:19:30.039Z,101128.51
2018-11-22T13:21:59.311Z,101129.41
2018-11-22T13:24:29.605Z,101129.03
2018-11-22T13:26:59.528Z,101130.41
2018-11-22T13:29:28.772Z,101133.73
2018-11-22T13:31:59.050Z,101125.36
2018-11-22T13:34:28.088Z,101126.70
2018-11-22T13:40:44.322Z,101131.80
2018-11-22T13:43:13.462Z,101126.75
2018-11-22T13:45:42.968Z,101128.02
2018-11-22T13:48:13.234Z,101128.86
2018-11-22T13:50:42.527Z,101125.80
2018-11-22T13:53:11.694Z,101132.21
2018-11-22T13:55:40.581Z,101134.33
2018-11-22T13:58:09.566Z,101131.13
2018-11-22T14:00:38.665Z,101128.50
2018-11-22T14:03:07.963Z,101133.13
2018-11-22T14:05:37.188Z,101134.81
2018-11-22T14:08:07.083Z,101129.33
2018-11-22T14:10:36.156Z,101131.92
2018-11-22T14:13:05.546Z,101130.12
2018-11-22T14:15:34.769Z,101128.42
2018-11-22T14:18:05.158Z,101134.81
2018-11-22T14:20:35.592Z,101137.80
2018-11-22T14:23:04.884Z,101143.11
2018-11-22T14:25:33.931Z,101141.84
2018-11-22T14:28:03.433Z,101134.64
2018-11-22T17:43:22.300Z,101137.98
2018-11-22T17:45:52.932Z,101141.23
2018-11-22T17:48:22.288Z,101143.77
2018-11-22T17:50:53.118Z,101145.83
2018-11-22T17:53:21.580Z,101142.50
2018-11-22T17:55:50.198Z,101144.12
2018-11-22T17:58:19.966Z,101143.66
2018-11-22T18:00:55.351Z,101140.77
2018-11-22T18:03:25.495Z,101142.14
2018-11-22T18:06:10.495Z,101144.20
2018-11-22T18:08:39.117Z,101148.81
2018-11-22T18:11:08.108Z,101148.53
2018-11-22T18:13:37.486Z,101146.00
2018-11-22T18:16:06.512Z,101148.09
2018-11-22T18:18:35.481Z,101149.77
2018-11-22T18:21:05.830Z,101150.67
2018-11-22T18:23:34.955Z,101143.11
2018-11-22T18:26:03.699Z,101153.51
2018-11-22T18:28:32.444Z,101148.53
2018-11-22T18:31:01.132Z,101147.62
2018-11-22T18:33:30.430Z,101144.36
2018-11-22T18:36:00.347Z,101138.48
2018-11-22T18:38:29.223Z,101140.22
2018-11-22T18:40:58.206Z,101144.19
2018-11-22T18:43:26.742Z,101139.98
2018-11-22T18:45:55.891Z,101141.13
2018-11-22T18:48:24.607Z,101138.19
2018-11-22T18:50:53.219Z,101139.13
2018-11-22T18:53:22.354Z,101143.28
2018-11-22T18:55:52.148Z,101145.91
2018-11-22T18:58:20.783Z,101147.08
2018-11-22T19:00:50.033Z,101148.34
2018-11-22T19:03:22.032Z,101144.23
2018-11-22T19:05:54.203Z,101144.26
2018-11-22T19:08:23.978Z,101139.97
2018-11-22T19:10:52.883Z,101140.40
2018-11-22T19:13:21.374Z,101143.28
2018-11-22T19:15:52.919Z,101147.61
2018-11-22T19:18:21.959Z,101145.45
2018-11-22T19:20:51.923Z,101141.37
2018-11-22T19:23:21.514Z,101142.51
2018-11-22T19:25:51.556Z,101142.85
2018-11-22T19:28:20.091Z,101145.09
2018-11-22T19:30:49.680Z,101137.88
2018-11-22T19:33:21.785Z,101136.61
2018-11-22T19:35:57.591Z,101137.08
2018-11-22T19:38:33.959Z,101140.40
2018-11-22T19:41:02.618Z,101142.08
2018-11-22T19:43:32.007Z,101137.52
2018-11-22T19:46:02.438Z,101132.33
2018-11-22T19:48:32.766Z,101132.45
2018-11-22T19:51:05.580Z,101135.88
2018-11-22T19:53:29.794Z,101125.61
2018-11-22T19:56:00.604Z,101125.13
2018-11-22T19:58:30.360Z,101129.03
2018-11-22T20:00:59.369Z,101131.44
2018-11-22T20:03:28.746Z,101138.66
2018-11-22T20:05:59.549Z,101137.08
2018-11-22T20:08:29.160Z,101139.60
2018-11-22T20:10:59.463Z,101131.55
2018-11-22T20:13:46.103Z,101132.75
2018-11-22T20:16:15.578Z,101135.70
2018-11-22T20:18:44.236Z,101135.34
2018-11-22T20:21:13.054Z,101133.06
2018-11-22T20:23:41.666Z,101141.78
2018-11-22T20:26:10.071Z,101139.33
2018-11-22T20:28:38.992Z,101146.05
2018-11-22T20:31:08.280Z,101141.05
2018-11-22T20:33:36.891Z,101145.22
2018-11-22T20:36:06.516Z,101142.68
2018-11-22T20:38:35.403Z,101137.21
2018-11-22T20:41:03.909Z,101148.58
2018-11-22T20:43:32.421Z,101142.68
2018-11-22T20:46:01.050Z,101142.31
2018-11-22T20:48:29.550Z,101149.42
2018-11-22T20:50:58.078Z,101143.89
2018-11-22T20:53:26.711Z,101153.14
2018-11-22T20:55:56.115Z,101155.20
2018-11-22T20:58:24.780Z,101150.52
2018-11-22T21:00:53.235Z,101158.61
2018-11-22T21:03:21.802Z,101151.83
2018-11-22T21:05:53.786Z,101150.69
2018-11-22T21:08:23.027Z,101159.11
2018-11-22T21:10:53.553Z,101162.59
2018-11-22T21:13:22.707Z,101163.06
2018-11-22T21:15:51.231Z,101166.75
2018-11-22T21:18:19.660Z,101163.44
2018-11-22T21:20:48.075Z,101164.76
2018-11-22T21:23:16.991Z,101162.59
2018-11-22T21:25:45.585Z,101157.95
2018-11-22T21:28:14.048Z,101155.43
2018-11-22T21:30:49.265Z,101158.75
2018-11-22T21:33:19.268Z,101166.02
2018-11-22T21:35:48.189Z,101158.44
2018-11-22T21:38:16.940Z,101160.84
2018-11-22T21:40:58.654Z,101153.22
2018-11-22T21:43:41.171Z,101155.84
2018-11-22T21:46:09.767Z,101151.78
2018-11-22T21:48:38.817Z,101152.73
2018-11-22T21:51:07.937Z,101154.35
2018-11-22T21:53:36.869Z,101153.14
2018-11-22T21:56:06.255Z,101153.56
2018-11-22T21:58:35.263Z,101155.73
2018-11-22T22:01:04.320Z,101153.99
2018-11-22T22:03:33.318Z,101158.98
2018-11-22T22:06:01.919Z,101154.05
2018-11-22T22:08:31.397Z,101154.48
2018-11-22T22:11:01.529Z,101150.33
2018-11-22T22:13:30.884Z,101155.43
2018-11-22T22:16:00.141Z,101148.89
2018-11-22T22:18:29.391Z,101155.20
2018-11-22T22:20:58.553Z,101154.23
2018-11-22T22:23:27.127Z,101149.17
2018-11-22T22:25:56.187Z,101144.98
2018-11-22T22:28:27.729Z,101145.92
2018-11-22T22:31:11.721Z,101148.77
2018-11-22T22:33:41.670Z,101145.46
2018-11-22T22:36:11.501Z,101141.13
2018-11-22T22:38:41.745Z,101143.28
2018-11-22T22:41:10.262Z,101142.45
2018-11-22T22:43:39.086Z,101144.66
2018-11-22T22:46:09.853Z,101145.39
2018-11-22T22:48:39.821Z,101140.77
2018-11-22T22:51:08.888Z,101143.82
2018-11-22T22:53:38.493Z,101142.50
2018-11-22T22:56:07.672Z,101143.82
2018-11-22T22:58:37.295Z,101152.50
2018-11-22T23:01:06.250Z,101139.03
2018-11-22T23:03:34.793Z,101142.86
2018-11-22T23:06:05.001Z,101140.70
2018-11-22T23:08:33.460Z,101133.56
2018-11-22T23:11:02.049Z,101140.77
2018-11-22T23:13:30.730Z,101139.36
2018-11-22T23:15:59.826Z,101144.80
2018-11-22T23:18:28.730Z,101137.20
2018-11-22T23:20:57.582Z,101141.06
2018-11-22T23:23:26.543Z,101130.13
2018-11-22T23:25:55.692Z,101129.11
2018-11-22T23:28:24.638Z,101130.48
2018-11-22T23:30:53.758Z,101125.20
2018-11-22T23:33:22.312Z,101125.61
2018-11-22T23:35:51.151Z,101121.95
2018-11-22T23:38:19.655Z,101120.50
2018-11-22T23:40:48.930Z,101117.62
2018-11-22T23:43:18.108Z,101119.84
2018-11-22T23:45:48.628Z,101120.38
2018-11-22T23:48:19.807Z,101134.63
2018-11-22T23:50:49.344Z,101133.84
2018-11-22T23:53:18.348Z,101135.47
2018-11-22T23:55:47.315Z,101137.20
2018-11-22T23:58:16.774Z,101135.16
